createdAt,value
2018-07-16T00:00:33.930Z,5.13
2018-07-16T00:03:03.630Z,4.07
2018-07-16T00:05:33.250Z,4.60
2018-07-16T00:08:02.818Z,4.87
2018-07-16T00:10:31.620Z,4.83
2018-07-16T00:13:00.385Z,4.27
2018-07-16T00:15:29.195Z,5.93
2018-07-16T00:17:59.648Z,4.40
2018-07-16T00:20:28.422Z,4.63
2018-07-16T00:22:57.234Z,4.50
2018-07-16T00:25:26.003Z,5.03
2018-07-16T00:27:54.782Z,5.03
2018-07-16T00:30:23.940Z,6.23
2018-07-16T00:32:53.908Z,4.73
2018-07-16T00:35:22.702Z,5.07
2018-07-16T00:37:52.079Z,4.87
2018-07-16T00:40:20.846Z,5.07
2018-07-16T00:42:50.126Z,5.00
2018-07-16T00:45:19.415Z,5.73
2018-07-16T00:47:48.171Z,4.57
2018-07-16T00:50:16.966Z,4.90
2018-07-16T00:52:45.701Z,4.53
2018-07-16T00:55:15.347Z,5.30
2018-07-16T00:57:44.935Z,5.27
2018-07-16T01:00:13.734Z,4.97
2018-07-16T01:02:43.157Z,5.60
2018-07-16T01:05:12.692Z,5.00
2018-07-16T01:07:42.034Z,5.33
2018-07-16T01:10:10.809Z,5.27
2018-07-16T01:12:39.570Z,5.07
2018-07-16T01:15:08.389Z,4.90
2018-07-16T01:17:37.134Z,5.80
2018-07-16T01:20:06.904Z,5.47
2018-07-16T01:22:36.361Z,5.37
2018-07-16T01:25:05.817Z,5.30
2018-07-16T01:27:35.102Z,6.00
2018-07-16T01:30:04.802Z,5.83
2018-07-16T01:32:33.795Z,6.07
2018-07-16T01:35:02.556Z,5.07
2018-07-16T01:37:32.470Z,6.77
2018-07-16T01:40:01.288Z,5.87
2018-07-16T01:42:31.326Z,6.27
2018-07-16T01:45:00.116Z,5.87
2018-07-16T01:47:28.947Z,7.13
2018-07-16T01:49:57.767Z,6.00
2018-07-16T01:52:26.592Z,6.33
2018-07-16T01:54:55.998Z,6.10
2018-07-16T01:57:25.569Z,7.13
2018-07-16T01:59:54.322Z,5.87
2018-07-16T02:02:23.917Z,6.93
2018-07-16T02:04:53.369Z,7.10
2018-07-16T02:07:22.812Z,7.33
2018-07-16T02:09:51.566Z,6.37
2018-07-16T02:12:20.376Z,6.53
2018-07-16T02:14:50.033Z,6.77
2018-07-16T02:17:18.787Z,6.30
2018-07-16T02:19:48.597Z,7.47
2018-07-16T02:22:17.389Z,6.13
2018-07-16T02:24:46.159Z,6.67
2018-07-16T02:27:15.049Z,6.87
2018-07-16T02:29:43.814Z,6.87
2018-07-16T02:32:13.358Z,7.60
2018-07-16T02:34:42.132Z,8.30
2018-07-16T02:37:11.566Z,7.73
2018-07-16T02:39:40.354Z,7.40
2018-07-16T02:42:09.203Z,6.23
2018-07-16T02:44:38.012Z,8.00
2018-07-16T02:47:06.814Z,6.40
2018-07-16T02:49:36.085Z,7.33
2018-07-16T02:52:05.114Z,7.70
2018-07-16T02:54:34.182Z,7.53
2018-07-16T02:57:04.033Z,8.40
2018-07-16T02:59:33.611Z,7.80
2018-07-16T03:02:03.535Z,7.90
2018-07-16T03:04:33.348Z,8.63
2018-07-16T03:07:03.031Z,8.23
2018-07-16T03:09:31.813Z,8.10
2018-07-16T03:12:00.643Z,8.00
2018-07-16T03:14:30.002Z,7.90
2018-07-16T03:16:58.742Z,8.70
2018-07-16T03:19:28.094Z,8.23
2018-07-16T03:21:56.879Z,7.70
2018-07-16T03:24:25.671Z,7.73
2018-07-16T03:26:54.472Z,8.40
2018-07-16T03:29:23.219Z,8.00
2018-07-16T03:31:52.735Z,8.70
2018-07-16T03:34:21.476Z,8.00
2018-07-16T03:36:51.207Z,8.20
2018-07-16T03:39:19.978Z,7.77
2018-07-16T03:41:48.742Z,8.33
2018-07-16T03:44:17.542Z,7.87
2018-07-16T03:46:46.443Z,8.00
2018-07-16T03:49:15.444Z,8.53
2018-07-16T03:51:44.230Z,7.87
2018-07-16T03:54:12.984Z,8.00
2018-07-16T03:56:42.502Z,7.93
2018-07-16T03:59:11.272Z,8.37
2018-07-16T04:01:40.604Z,7.80
2018-07-16T04:04:09.858Z,7.77
2018-07-16T04:06:39.325Z,8.27
2018-07-16T04:09:08.589Z,8.10
2018-07-16T04:11:37.579Z,8.03
2018-07-16T04:14:07.239Z,7.30
2018-07-16T04:16:36.210Z,7.87
2018-07-16T04:19:06.043Z,8.20
2018-07-16T04:21:35.091Z,8.07
2018-07-16T04:24:04.667Z,7.90
2018-07-16T04:26:34.218Z,8.33
2018-07-16T04:29:03.710Z,7.80
2018-07-16T04:31:33.249Z,8.07
2018-07-16T04:34:02.069Z,8.13
2018-07-16T04:36:31.425Z,8.13
2018-07-16T04:39:00.185Z,8.47
2018-07-16T04:41:28.978Z,7.97
2018-07-16T04:43:57.753Z,7.70
2018-07-16T04:46:26.522Z,8.03
2018-07-16T04:48:56.350Z,8.13
2018-07-16T04:51:25.186Z,8.07
2018-07-16T04:53:53.930Z,8.77
2018-07-16T04:56:23.738Z,8.60
2018-07-16T04:58:52.559Z,8.60
2018-07-16T05:01:21.349Z,8.20
2018-07-16T05:03:51.227Z,8.33
2018-07-16T05:06:21.271Z,7.80
2018-07-16T05:08:50.048Z,9.00
2018-07-16T05:11:18.842Z,8.30
2018-07-16T05:13:48.467Z,9.33
2018-07-16T05:16:17.251Z,8.53
2018-07-16T05:18:46.735Z,8.97
2018-07-16T05:21:15.532Z,8.27
2018-07-16T05:23:44.409Z,8.03
2018-07-16T05:26:13.198Z,8.10
2018-07-16T05:28:41.995Z,8.10
2018-07-16T05:31:11.382Z,7.60
2018-07-16T05:33:40.194Z,8.17
2018-07-16T05:36:09.042Z,7.67
2018-07-16T05:38:38.711Z,7.53
2018-07-16T05:41:07.583Z,7.47
2018-07-16T05:43:36.615Z,8.13
2018-07-16T05:49:05.586Z,7.60
2018-07-16T05:51:34.950Z,7.90
2018-07-16T05:54:04.092Z,8.57
2018-07-16T05:56:34.663Z,7.70
2018-07-16T05:59:03.748Z,8.07
2018-07-16T06:01:32.750Z,7.50
2018-07-16T06:04:02.660Z,6.43
2018-07-16T06:06:32.777Z,7.70
2018-07-16T06:09:01.791Z,6.67
2018-07-16T06:11:30.582Z,7.43
2018-07-16T06:14:00.268Z,7.43
2018-07-16T06:16:29.042Z,6.67
2018-07-16T06:18:58.478Z,7.10
2018-07-16T06:21:27.284Z,6.33
2018-07-16T06:23:56.103Z,7.70
2018-07-16T06:26:24.923Z,7.23
2018-07-16T06:28:53.714Z,7.10
2018-07-16T06:31:23.382Z,6.63
2018-07-16T06:33:52.166Z,6.80
2018-07-16T06:36:21.323Z,6.53
2018-07-16T06:38:50.723Z,6.33
2018-07-16T06:41:19.858Z,6.77
2018-07-16T06:43:48.358Z,6.67
2018-07-16T06:46:17.354Z,5.90
2018-07-16T06:48:46.131Z,5.70
2018-07-16T06:51:15.015Z,6.30
2018-07-16T06:53:43.801Z,6.33
2018-07-16T06:56:13.522Z,6.80
2018-07-16T06:58:42.506Z,5.80
2018-07-16T07:01:11.282Z,6.67
2018-07-16T07:03:41.042Z,5.83
2018-07-16T07:06:10.470Z,5.70
2018-07-16T07:08:39.233Z,5.50
2018-07-16T07:11:08.157Z,6.60
2018-07-16T07:13:37.437Z,5.70
2018-07-16T07:16:06.687Z,5.43
2018-07-16T07:18:36.567Z,5.97
2018-07-16T07:21:05.743Z,5.53
2018-07-16T07:23:34.846Z,5.67
2018-07-16T07:26:04.206Z,5.43
2018-07-16T07:28:33.320Z,5.70
2018-07-16T07:31:02.539Z,6.20
2018-07-16T07:33:31.774Z,5.77
2018-07-16T07:36:00.628Z,5.67
2018-07-16T07:38:29.876Z,5.43
2018-07-16T07:40:58.667Z,5.87
2018-07-16T07:43:27.765Z,5.93
2018-07-16T07:45:56.551Z,5.70
2018-07-16T07:48:25.338Z,4.83
2018-07-16T07:50:54.215Z,5.13
2018-07-16T07:53:23.602Z,5.23
2018-07-16T07:55:53.421Z,4.50
2018-07-16T07:58:22.176Z,4.27
2018-07-16T08:00:50.975Z,4.33
2018-07-16T08:03:20.740Z,3.90
2018-07-16T08:05:55.384Z,3.50
2018-07-16T08:08:24.966Z,3.40
2018-07-16T08:10:53.801Z,4.30
2018-07-16T08:13:23.804Z,3.40
2018-07-16T08:15:52.606Z,3.37
2018-07-16T08:18:22.133Z,3.73
2018-07-16T08:20:50.894Z,3.67
2018-07-16T08:23:20.074Z,4.10
2018-07-16T08:25:48.885Z,3.80
2018-07-16T08:28:18.382Z,3.60
2018-07-16T08:30:47.490Z,4.33
2018-07-16T08:33:16.345Z,3.97
2018-07-16T08:35:45.123Z,4.03
2018-07-16T08:38:14.478Z,3.90
2018-07-16T08:40:43.267Z,4.73
2018-07-16T08:43:12.098Z,3.90
2018-07-16T08:45:40.892Z,4.20
2018-07-16T08:48:09.731Z,3.60
2018-07-16T08:50:38.584Z,4.77
2018-07-16T08:53:07.624Z,3.90
2018-07-16T08:55:37.184Z,4.10
2018-07-16T08:58:06.376Z,3.83
2018-07-16T09:00:35.457Z,4.03
2018-07-16T09:03:05.347Z,3.97
2018-07-16T09:05:34.811Z,3.80
2018-07-16T09:08:04.592Z,4.20
2018-07-16T09:10:33.417Z,4.23
2018-07-16T09:13:03.212Z,4.10
2018-07-16T09:15:32.074Z,4.23
2018-07-16T09:18:01.631Z,3.97
2018-07-16T09:20:30.447Z,4.43
2018-07-16T09:22:59.233Z,4.17
2018-07-16T09:25:28.064Z,4.00
2018-07-16T09:27:56.815Z,4.00
2018-07-16T09:30:26.796Z,4.17
2018-07-16T09:32:55.606Z,3.97
2018-07-16T09:35:24.395Z,4.23
2018-07-16T09:37:54.083Z,4.23
2018-07-16T09:40:22.886Z,3.90
2018-07-16T09:42:51.643Z,4.07
2018-07-16T09:45:20.898Z,4.07
2018-07-16T09:47:49.667Z,3.80
2018-07-16T09:50:18.593Z,3.43
2018-07-16T09:52:47.423Z,3.90
2018-07-16T09:55:16.981Z,3.97
2018-07-16T09:57:46.356Z,4.60
2018-07-16T10:00:19.344Z,3.70
2018-07-16T10:02:48.690Z,4.43
2018-07-16T10:05:18.025Z,4.17
2018-07-16T10:07:47.396Z,4.40
2018-07-16T10:10:16.214Z,4.07
2018-07-16T10:12:45.624Z,3.90
2018-07-16T10:15:14.377Z,4.23
2018-07-16T10:17:43.215Z,4.83
2018-07-16T10:20:12.911Z,3.93
2018-07-16T10:22:41.650Z,4.10
2018-07-16T10:25:10.458Z,3.80
2018-07-16T10:27:39.246Z,4.10
2018-07-16T10:30:08.834Z,4.20
2018-07-16T10:32:37.603Z,5.70
2018-07-16T10:35:06.875Z,4.07
2018-07-16T10:37:37.159Z,4.47
2018-07-16T10:40:06.810Z,3.70
2018-07-16T10:42:35.888Z,4.20
2018-07-16T10:45:05.847Z,3.67
2018-07-16T10:47:35.079Z,5.27
2018-07-16T10:50:04.482Z,3.53
2018-07-16T10:52:33.300Z,4.37
2018-07-16T10:55:03.330Z,3.90
2018-07-16T10:57:33.224Z,4.30
2018-07-16T11:00:02.073Z,3.83
2018-07-16T11:02:31.746Z,3.57
2018-07-16T11:05:01.345Z,3.63
2018-07-16T11:07:31.223Z,4.03
2018-07-16T11:09:59.975Z,4.13
2018-07-16T11:12:29.255Z,4.50
2018-07-16T11:14:58.014Z,3.20
2018-07-16T11:17:26.786Z,3.87
2018-07-16T11:19:56.288Z,3.70
2018-07-16T11:22:25.172Z,3.90
2018-07-16T11:24:53.940Z,3.70
2018-07-16T11:27:22.761Z,3.97
2018-07-16T11:29:52.543Z,3.47
2018-07-16T11:32:21.315Z,3.57
2018-07-16T11:34:50.090Z,3.30
2018-07-16T11:37:19.661Z,3.50
2018-07-16T11:39:48.470Z,3.80
2018-07-16T11:42:17.279Z,3.67
2018-07-16T11:44:46.059Z,3.40
2018-07-16T11:47:14.851Z,3.27
2018-07-16T11:49:43.719Z,4.27
2018-07-16T11:52:12.571Z,3.50
2018-07-16T11:54:42.187Z,4.50
2018-07-16T11:57:11.728Z,3.93
2018-07-16T11:59:40.486Z,3.93
2018-07-16T12:02:09.917Z,3.70
2018-07-16T12:04:40.448Z,3.60
2018-07-16T12:07:09.821Z,3.90
2018-07-16T12:09:38.666Z,3.37
2018-07-16T12:12:07.524Z,3.67
2018-07-16T12:14:36.948Z,3.80
2018-07-16T12:17:06.103Z,4.40
2018-07-16T12:19:36.129Z,3.97
2018-07-16T12:22:05.727Z,3.70
2018-07-16T12:24:35.611Z,3.63
2018-07-16T12:27:04.968Z,3.63
2018-07-16T12:29:33.937Z,3.20
2018-07-16T12:32:03.742Z,4.10
2018-07-16T12:34:32.498Z,3.47
2018-07-16T12:37:02.921Z,3.90
2018-07-16T12:39:31.692Z,3.60
2018-07-16T12:42:00.462Z,3.90
2018-07-16T12:44:29.265Z,3.40
2018-07-16T12:46:58.054Z,3.97
2018-07-16T12:49:26.984Z,3.30
2018-07-16T12:51:56.031Z,4.50
2018-07-16T12:54:24.816Z,3.50
2018-07-16T12:56:54.056Z,3.60
2018-07-16T12:59:22.843Z,3.77
2018-07-16T13:01:52.260Z,3.90
2018-07-16T13:04:21.652Z,3.80
2018-07-16T13:06:51.604Z,4.47
2018-07-16T13:09:20.363Z,4.00
2018-07-16T13:11:49.185Z,4.03
2018-07-16T13:14:19.482Z,3.77
2018-07-16T13:16:48.256Z,3.70
2018-07-16T13:19:18.083Z,3.30
2018-07-16T13:21:46.919Z,3.60
2018-07-16T13:24:15.667Z,3.10
2018-07-16T13:26:44.493Z,3.57
2018-07-16T13:29:13.298Z,3.50
2018-07-16T13:31:43.037Z,3.63
2018-07-16T13:34:11.790Z,3.50
2018-07-16T13:36:41.692Z,3.30
2018-07-16T13:39:11.277Z,3.77
2018-07-16T13:41:40.100Z,3.77
2018-07-16T13:44:08.930Z,3.63
2018-07-16T13:46:37.716Z,3.30
2018-07-16T13:49:07.582Z,4.00
2018-07-16T13:51:36.830Z,3.50
2018-07-16T13:54:06.050Z,4.13
2018-07-16T13:56:36.222Z,3.43
2018-07-16T13:59:05.583Z,4.13
2018-07-16T14:01:35.086Z,3.13
2018-07-16T14:04:05.107Z,3.87
2018-07-16T14:06:34.891Z,3.63
2018-07-16T14:09:04.293Z,3.60
2018-07-16T14:11:33.708Z,3.57
2018-07-16T14:14:03.378Z,4.00
2018-07-16T14:16:32.112Z,3.30
2018-07-16T14:19:01.587Z,3.47
2018-07-16T14:21:30.425Z,3.20
2018-07-16T14:23:59.183Z,3.83
2018-07-16T14:26:27.975Z,3.23
2018-07-16T14:28:56.746Z,3.97
2018-07-16T14:31:26.231Z,3.70
2018-07-16T14:33:55.045Z,3.93
2018-07-16T14:36:24.753Z,3.60
2018-07-16T14:38:54.415Z,3.87
2018-07-16T14:41:23.242Z,3.37
2018-07-16T14:43:52.073Z,3.90
2018-07-16T14:46:20.835Z,3.80
2018-07-16T14:48:49.727Z,3.60
2018-07-16T14:51:18.639Z,3.50
2018-07-16T14:53:47.428Z,3.80
2018-07-16T14:56:17.091Z,4.10
2018-07-16T14:58:46.010Z,3.17
2018-07-16T15:01:14.824Z,3.80
2018-07-16T15:03:44.074Z,3.60
2018-07-16T15:06:13.519Z,3.80
2018-07-16T15:08:42.278Z,3.10
2018-07-16T15:11:11.078Z,3.40
2018-07-16T15:13:40.476Z,3.40
2018-07-16T15:16:09.264Z,3.23
2018-07-16T15:18:39.370Z,3.40
2018-07-16T15:21:08.286Z,3.50
2018-07-16T15:23:36.953Z,3.40
2018-07-16T15:26:06.291Z,3.60
2018-07-16T15:28:36.061Z,3.73
2018-07-16T15:31:06.511Z,3.70
2018-07-16T15:33:35.677Z,3.30
2018-07-16T15:36:04.877Z,3.63
2018-07-16T15:38:35.520Z,3.97
2018-07-16T15:41:07.134Z,3.93
2018-07-16T15:43:36.563Z,3.43
2018-07-16T15:46:05.786Z,3.57
2018-07-16T15:48:34.878Z,3.80
2018-07-16T15:51:03.957Z,3.60
2018-07-16T15:53:32.762Z,3.83
2018-07-16T15:56:02.482Z,3.40
2018-07-16T15:58:31.330Z,3.73
2018-07-16T16:01:00.098Z,3.80
2018-07-16T16:03:29.750Z,4.30
2018-07-16T16:05:59.095Z,3.47
2018-07-16T16:08:28.583Z,3.98
2018-07-16T16:10:57.382Z,4.30
2018-07-16T16:13:26.779Z,4.12
2018-07-16T16:15:55.597Z,3.52
2018-07-16T16:18:25.039Z,4.05
2018-07-16T16:20:53.835Z,4.17
2018-07-16T16:23:22.630Z,4.28
2018-07-16T16:25:51.403Z,4.08
2018-07-16T16:28:20.268Z,4.08
2018-07-16T16:30:49.773Z,3.77
2018-07-16T16:33:18.638Z,4.00
2018-07-16T16:35:47.482Z,3.37
2018-07-16T16:38:17.100Z,4.03
2018-07-16T16:40:45.882Z,4.40
2018-07-16T16:43:14.738Z,3.93
2018-07-16T16:45:43.595Z,4.20
2018-07-16T16:48:12.407Z,4.03
2018-07-16T16:50:41.297Z,4.67
2018-07-16T16:53:10.111Z,4.13
2018-07-16T16:55:39.821Z,4.47
2018-07-16T16:58:08.683Z,4.03
2018-07-16T17:00:37.497Z,4.20
2018-07-16T17:03:06.994Z,3.83
2018-07-16T17:05:36.573Z,3.83
2018-07-16T17:08:07.131Z,4.17
2018-07-16T17:10:39.032Z,4.20
2018-07-16T17:13:09.273Z,3.70
2018-07-16T17:15:38.067Z,3.90
2018-07-16T17:18:07.635Z,3.10
2018-07-16T17:20:36.464Z,3.73
2018-07-16T17:23:06.208Z,3.53
2018-07-16T17:25:35.371Z,4.10
2018-07-16T17:28:04.565Z,4.30
2018-07-16T17:30:34.736Z,3.80
2018-07-16T17:33:03.833Z,3.63
2018-07-16T17:35:33.902Z,3.22
2018-07-16T17:38:03.668Z,3.47
2018-07-16T17:40:32.494Z,3.55
2018-07-16T17:43:01.275Z,3.60
2018-07-16T17:45:30.043Z,3.97
2018-07-16T17:47:58.797Z,3.90
2018-07-16T17:50:27.695Z,3.60
2018-07-16T17:52:56.515Z,3.40
2018-07-16T17:55:25.867Z,3.40
2018-07-16T17:57:55.296Z,3.70
2018-07-16T18:00:24.143Z,3.50
2018-07-16T18:02:53.686Z,3.70
2018-07-16T18:05:23.126Z,3.10
2018-07-16T18:07:53.167Z,3.77
2018-07-16T18:10:22.043Z,2.93
2018-07-16T18:12:51.488Z,3.63
2018-07-16T18:15:20.267Z,2.93
2018-07-16T18:17:50.007Z,3.30
2018-07-16T18:20:18.796Z,3.10
2018-07-16T18:22:47.553Z,3.33
2018-07-16T18:25:16.439Z,3.00
2018-07-16T18:27:45.164Z,3.47
2018-07-16T18:30:14.770Z,3.47
2018-07-16T18:32:43.530Z,3.00
2018-07-16T18:35:12.303Z,5.10
2018-07-16T18:37:42.870Z,3.13
2018-07-16T18:40:11.535Z,3.80
2018-07-16T18:42:40.326Z,3.50
2018-07-16T18:45:09.136Z,3.83
2018-07-16T18:47:37.890Z,3.37
2018-07-16T18:50:07.939Z,3.47
2018-07-16T18:52:36.773Z,3.73
2018-07-16T18:55:06.646Z,4.10
2018-07-16T18:57:36.431Z,3.60
2018-07-16T19:00:06.576Z,3.87
2018-07-16T19:02:36.237Z,3.30
2018-07-16T19:05:06.061Z,4.00
2018-07-16T19:07:36.221Z,3.60
2018-07-16T19:10:05.526Z,3.83
2018-07-16T19:12:36.276Z,3.40
2018-07-16T19:15:11.071Z,3.83
2018-07-16T19:17:39.867Z,3.93
2018-07-16T19:20:09.444Z,4.30
2018-07-16T19:22:38.254Z,3.50
2018-07-16T19:25:07.063Z,4.00
2018-07-16T19:27:36.402Z,3.50
2018-07-16T19:30:06.544Z,4.10
2018-07-16T19:32:35.647Z,3.97
2018-07-16T19:35:04.959Z,3.57
2018-07-16T19:37:35.753Z,3.50
2018-07-16T19:40:05.351Z,3.70
2018-07-16T19:42:34.614Z,4.03
2018-07-16T19:45:03.849Z,3.97
2018-07-16T19:47:32.653Z,3.37
2018-07-16T19:50:01.741Z,4.20
2018-07-16T19:52:30.669Z,3.37
2018-07-16T19:55:00.796Z,3.70
2018-07-16T19:57:30.163Z,3.90
2018-07-16T19:59:58.936Z,3.93
2018-07-16T20:02:28.606Z,3.77
2018-07-16T20:04:58.224Z,3.63
2018-07-16T20:07:27.884Z,3.77
2018-07-16T20:09:56.783Z,3.70
2018-07-16T20:12:32.552Z,4.33
2018-07-16T20:15:02.203Z,3.93
2018-07-16T20:17:31.378Z,3.80
2018-07-16T20:20:01.952Z,4.00
2018-07-16T20:22:30.919Z,3.43
2018-07-16T20:25:00.266Z,4.43
2018-07-16T20:27:29.098Z,3.87
2018-07-16T20:29:58.726Z,4.57
2018-07-16T20:32:27.596Z,3.63
2018-07-16T20:34:56.347Z,4.50
2018-07-16T20:37:25.820Z,4.13
2018-07-16T20:39:54.587Z,4.50
2018-07-16T20:42:23.338Z,3.67
2018-07-16T20:44:52.177Z,4.77
2018-07-16T20:47:20.977Z,3.80
2018-07-16T20:49:49.804Z,4.30
2018-07-16T20:52:18.612Z,3.83
2018-07-16T20:54:48.593Z,4.53
2018-07-16T20:57:17.948Z,3.93
2018-07-16T20:59:46.733Z,4.40
2018-07-16T21:02:16.238Z,4.00
2018-07-16T21:04:45.700Z,4.50
2018-07-16T21:07:15.080Z,3.80
2018-07-16T21:09:43.884Z,3.90
2018-07-16T21:12:12.669Z,4.00
2018-07-16T21:14:42.090Z,4.07
2018-07-16T21:17:10.875Z,4.03
2018-07-16T21:19:40.146Z,3.63
2018-07-16T21:22:08.896Z,4.10
2018-07-16T21:24:37.876Z,4.30
2018-07-16T21:27:06.695Z,4.63
2018-07-16T21:29:35.686Z,4.47
2018-07-16T21:32:05.447Z,4.90
2018-07-16T21:34:34.971Z,4.60
2018-07-16T21:37:05.032Z,4.77
2018-07-16T21:39:33.955Z,4.97
2018-07-16T21:42:03.008Z,5.10
2018-07-16T21:44:32.012Z,4.67
2018-07-16T21:47:00.790Z,4.63
2018-07-16T21:49:29.767Z,4.40
2018-07-16T21:51:58.698Z,4.70
2018-07-16T21:54:27.416Z,4.27
2018-07-16T21:56:56.948Z,4.90
2018-07-16T21:59:25.722Z,4.87
2018-07-16T22:01:55.257Z,5.23
2018-07-16T22:04:24.782Z,4.90
2018-07-16T22:06:54.400Z,5.10
2018-07-16T22:09:23.158Z,4.80
2018-07-16T22:11:51.976Z,5.10
2018-07-16T22:14:21.621Z,4.80
2018-07-16T22:16:50.378Z,5.63
2018-07-16T22:19:19.807Z,4.50
2018-07-16T22:21:48.595Z,4.90
2018-07-16T22:24:17.371Z,4.27
2018-07-16T22:26:46.198Z,4.87
2018-07-16T22:29:14.962Z,4.40
2018-07-16T22:31:44.422Z,4.87
2018-07-16T22:34:13.233Z,4.47
2018-07-16T22:36:42.495Z,5.53
2018-07-16T22:39:11.773Z,4.53
2018-07-16T22:41:40.614Z,4.90
2018-07-16T22:44:09.401Z,4.93
2018-07-16T22:46:38.218Z,4.37
2018-07-16T22:49:07.099Z,4.70
2018-07-16T22:51:36.455Z,4.27
2018-07-16T22:54:05.602Z,4.77
2018-07-16T22:56:35.291Z,4.40
2018-07-16T22:59:04.559Z,4.70
2018-07-16T23:01:33.691Z,4.80
2018-07-16T23:04:03.841Z,5.00
2018-07-16T23:06:34.036Z,4.97
2018-07-16T23:09:03.084Z,5.23
2018-07-16T23:11:31.938Z,4.50
2018-07-16T23:14:01.284Z,4.70
2018-07-16T23:16:30.054Z,4.20
2018-07-16T23:18:59.507Z,5.07
2018-07-16T23:21:28.343Z,4.97
2018-07-16T23:23:57.109Z,5.20
2018-07-16T23:26:25.939Z,4.70
2018-07-16T23:28:54.728Z,5.27
2018-07-16T23:31:24.194Z,5.17
2018-07-16T23:33:52.991Z,5.40
2018-07-16T23:36:21.739Z,4.77
2018-07-16T23:38:51.047Z,5.13
2018-07-16T23:41:19.814Z,5.27
2018-07-16T23:43:48.608Z,5.10
2018-07-16T23:46:17.438Z,4.97
2018-07-16T23:48:46.297Z,5.33
2018-07-16T23:51:15.131Z,4.90
2018-07-16T23:53:44.003Z,5.30
2018-07-16T23:56:13.613Z,5.37
2018-07-16T23:58:42.444Z,4.97
